Time;durP1;ratioP1;P1;durP2;ratioP2;P2;SDS_P1;SDS_P2;PMS_P1;PMS_P2;Temp;Humidity;BMP_temperature;BMP_pressure;BME280_temperature;BME280_humidity;BME280_pressure;Samples;Min_cycle;Max_cycle;Signal;HPM_P1;HPM_P2
2023/06/20 00:00:47;;;;;;;6.95;4.80;;;;;;;;;;5046799;28;20187;-68
2023/06/20 00:03:16;;;;;;;5.60;4.10;;;;;;;;;;5032305;28;20026;-68
2023/06/20 00:05:42;;;;;;;5.93;4.03;;;;;;;;;;5019949;28;20111;-68
2023/06/20 00:08:08;;;;;;;6.90;3.88;;;;;;;;;;5039077;28;20029;-68
2023/06/20 00:10:33;;;;;;;3.90;3.60;;;;;;;;;;5044678;28;20117;-67
2023/06/20 00:12:59;;;;;;;4.82;3.83;;;;;;;;;;5037773;28;20027;-69
2023/06/20 00:15:25;;;;;;;9.57;4.40;;;;;;;;;;5043240;28;20106;-68
2023/06/20 00:17:52;;;;;;;5.28;4.13;;;;;;;;;;5040130;28;20037;-68
2023/06/20 00:20:18;;;;;;;4.80;4.13;;;;;;;;;;5024773;28;20409;-68
2023/06/20 00:22:43;;;;;;;7.75;4.00;;;;;;;;;;5038357;28;20022;-68
2023/06/20 00:25:09;;;;;;;4.32;3.90;;;;;;;;;;5031794;28;20033;-68
2023/06/20 00:27:34;;;;;;;5.45;3.78;;;;;;;;;;5023779;28;20018;-68
2023/06/20 00:30:00;;;;;;;6.35;4.00;;;;;;;;;;5019702;28;20156;-69
2023/06/20 00:32:25;;;;;;;6.18;4.10;;;;;;;;;;5038797;28;20096;-68
2023/06/20 00:34:51;;;;;;;7.45;4.00;;;;;;;;;;5023056;28;20056;-68
2023/06/20 00:37:16;;;;;;;7.45;3.70;;;;;;;;;;5012649;28;20041;-67
2023/06/20 00:39:42;;;;;;;6.50;3.67;;;;;;;;;;5021381;28;20029;-68
2023/06/20 00:42:23;;;;;;;4.50;3.65;;;;;;;;;;5037518;28;20186;-68
2023/06/20 00:44:49;;;;;;;6.60;3.55;;;;;;;;;;5024142;28;20107;-68
2023/06/20 00:47:18;;;;;;;7.47;3.67;;;;;;;;;;5025537;28;20064;-68
2023/06/20 00:49:46;;;;;;;4.50;4.10;;;;;;;;;;5037942;28;20026;-68
2023/06/20 00:52:14;;;;;;;5.00;3.90;;;;;;;;;;5019639;28;20050;-68
2023/06/20 00:54:41;;;;;;;3.78;3.47;;;;;;;;;;5027047;28;20036;-68
2023/06/20 00:57:07;;;;;;;5.72;3.75;;;;;;;;;;5020691;28;20069;-68
2023/06/20 00:59:32;;;;;;;4.22;3.67;;;;;;;;;;5004732;28;20033;-68
2023/06/20 01:01:58;;;;;;;4.28;3.53;;;;;;;;;;5033170;28;20038;-68
2023/06/20 01:04:24;;;;;;;5.40;3.72;;;;;;;;;;5031237;28;20029;-68
2023/06/20 01:07:37;;;;;;;5.93;3.67;;;;;;;;;;5016167;28;20033;-68
2023/06/20 01:10:44;;;;;;;31.27;5.07;;;;;;;;;;5008796;28;20044;-69
2023/06/20 01:13:37;;;;;;;5.95;4.00;;;;;;;;;;4950938;28;20815;-68
2023/06/20 01:16:18;;;;;;;5.95;3.40;;;;;;;;;;5009302;28;20060;-68
2023/06/20 01:19:34;;;;;;;4.57;3.63;;;;;;;;;;5032939;28;20022;-68
2023/06/20 01:22:07;;;;;;;6.10;3.97;;;;;;;;;;5011165;28;20030;-68
2023/06/20 01:24:46;;;;;;;6.65;4.28;;;;;;;;;;5030770;28;20025;-68
2023/06/20 01:27:18;;;;;;;4.93;3.75;;;;;;;;;;5034651;28;20042;-68
2023/06/20 01:30:01;;;;;;;4.15;3.60;;;;;;;;;;5019554;28;20454;-68
2023/06/20 01:32:28;;;;;;;7.07;4.07;;;;;;;;;;5034985;28;20052;-68
2023/06/20 01:35:10;;;;;;;6.65;3.88;;;;;;;;;;5024404;28;20033;-68
2023/06/20 01:37:38;;;;;;;5.72;3.75;;;;;;;;;;5036611;28;20068;-68
2023/06/20 01:40:06;;;;;;;5.30;3.90;;;;;;;;;;5018144;28;20033;-68
2023/06/20 01:42:34;;;;;;;4.70;3.78;;;;;;;;;;5033971;28;20475;-68
2023/06/20 01:45:02;;;;;;;4.50;3.53;;;;;;;;;;5020351;28;20074;-68
2023/06/20 01:47:30;;;;;;;5.25;3.50;;;;;;;;;;5040295;28;20395;-69
2023/06/20 01:49:56;;;;;;;4.38;3.58;;;;;;;;;;5032393;28;20025;-68
2023/06/20 01:52:23;;;;;;;7.47;3.60;;;;;;;;;;5028263;28;20029;-68
2023/06/20 01:54:50;;;;;;;8.10;3.58;;;;;;;;;;5028038;28;20041;-68
2023/06/20 01:57:17;;;;;;;6.88;3.60;;;;;;;;;;5035345;28;20029;-68
2023/06/20 01:59:43;;;;;;;7.82;3.63;;;;;;;;;;5036087;28;20491;-69
2023/06/20 02:02:10;;;;;;;6.70;3.70;;;;;;;;;;5030792;28;20117;-69
2023/06/20 02:04:37;;;;;;;11.80;3.50;;;;;;;;;;5027474;28;20631;-68
2023/06/20 02:07:05;;;;;;;4.78;3.55;;;;;;;;;;5026608;28;20876;-67
2023/06/20 02:09:33;;;;;;;6.57;3.92;;;;;;;;;;5004388;28;20382;-68
2023/06/20 02:11:59;;;;;;;5.85;3.65;;;;;;;;;;5022855;28;20040;-68
2023/06/20 02:14:25;;;;;;;6.70;3.90;;;;;;;;;;5030111;28;20033;-68
2023/06/20 02:16:52;;;;;;;5.88;4.25;;;;;;;;;;5020397;28;20548;-68
2023/06/20 02:19:18;;;;;;;4.45;3.50;;;;;;;;;;5034384;28;20059;-68
2023/06/20 02:21:45;;;;;;;5.80;3.47;;;;;;;;;;5027127;28;20037;-69
2023/06/20 02:24:14;;;;;;;4.28;3.05;;;;;;;;;;5032919;28;20036;-68
2023/06/20 02:26:43;;;;;;;6.50;3.60;;;;;;;;;;5020405;28;20040;-68
2023/06/20 02:29:10;;;;;;;8.48;3.90;;;;;;;;;;5020960;28;20115;-69
2023/06/20 02:31:40;;;;;;;6.88;3.65;;;;;;;;;;5024706;28;20130;-69
2023/06/20 02:34:11;;;;;;;6.32;4.10;;;;;;;;;;5017225;28;20037;-69
2023/06/20 02:36:38;;;;;;;3.90;3.35;;;;;;;;;;5035404;28;20055;-68
2023/06/20 02:39:06;;;;;;;6.72;4.15;;;;;;;;;;5023645;28;20030;-68
2023/06/20 02:41:32;;;;;;;8.27;3.15;;;;;;;;;;5029929;28;20041;-69
2023/06/20 02:43:57;;;;;;;5.90;3.60;;;;;;;;;;5028453;28;20032;-68
2023/06/20 02:46:30;;;;;;;5.78;3.42;;;;;;;;;;5034799;28;20073;-69
2023/06/20 02:49:16;;;;;;;4.68;3.80;;;;;;;;;;5020851;28;20021;-69
2023/06/20 02:51:49;;;;;;;4.78;3.75;;;;;;;;;;5015893;28;20045;-69
2023/06/20 02:54:29;;;;;;;3.90;3.20;;;;;;;;;;5044481;28;20072;-69
2023/06/20 02:56:59;;;;;;;4.25;3.53;;;;;;;;;;5038277;28;20120;-69
2023/06/20 02:59:26;;;;;;;9.90;4.53;;;;;;;;;;5020250;28;20033;-69
2023/06/20 03:01:57;;;;;;;5.18;3.38;;;;;;;;;;5007213;28;20034;-69
2023/06/20 03:04:24;;;;;;;5.75;3.28;;;;;;;;;;5028447;28;20032;-69
2023/06/20 03:06:51;;;;;;;8.63;3.80;;;;;;;;;;5030283;28;20033;-69
2023/06/20 03:09:17;;;;;;;5.53;3.70;;;;;;;;;;5018914;28;20037;-69
2023/06/20 03:11:43;;;;;;;9.05;3.70;;;;;;;;;;5025094;28;20525;-69
2023/06/20 03:14:14;;;;;;;7.30;3.40;;;;;;;;;;5035534;28;20033;-69
2023/06/20 03:16:42;;;;;;;6.45;3.22;;;;;;;;;;5010930;28;20072;-68
2023/06/20 03:19:11;;;;;;;6.80;3.47;;;;;;;;;;5032054;28;20048;-68
2023/06/20 03:21:38;;;;;;;7.25;3.92;;;;;;;;;;5033107;28;20457;-68
2023/06/20 03:24:04;;;;;;;10.35;4.07;;;;;;;;;;5035823;28;20467;-69
2023/06/20 03:26:30;;;;;;;6.25;3.40;;;;;;;;;;5017655;28;20034;-68
2023/06/20 03:28:55;;;;;;;6.50;3.45;;;;;;;;;;5017635;28;20056;-68
2023/06/20 03:31:21;;;;;;;7.35;3.53;;;;;;;;;;5034869;28;20041;-69
2023/06/20 03:33:46;;;;;;;7.32;4.00;;;;;;;;;;5022429;28;20687;-69
2023/06/20 03:36:12;;;;;;;8.45;3.67;;;;;;;;;;5026732;28;20091;-68
2023/06/20 03:38:39;;;;;;;6.85;3.40;;;;;;;;;;5027968;28;20318;-69
2023/06/20 03:41:05;;;;;;;7.60;3.88;;;;;;;;;;5042268;28;20041;-69
2023/06/20 03:43:30;;;;;;;6.50;3.50;;;;;;;;;;5026284;28;20043;-68
2023/06/20 03:45:56;;;;;;;6.45;3.75;;;;;;;;;;5018515;28;20041;-69
2023/06/20 03:48:21;;;;;;;6.43;3.85;;;;;;;;;;5012590;28;20112;-70
2023/06/20 03:50:47;;;;;;;8.70;3.47;;;;;;;;;;5021615;28;20037;-69
2023/06/20 03:53:12;;;;;;;6.28;4.35;;;;;;;;;;5046093;28;20412;-69
2023/06/20 03:55:38;;;;;;;4.45;3.30;;;;;;;;;;5031857;28;20721;-70
2023/06/20 03:58:03;;;;;;;4.38;3.83;;;;;;;;;;5027304;28;20066;-69
2023/06/20 04:00:28;;;;;;;11.38;4.00;;;;;;;;;;5018533;28;20041;-69
2023/06/20 04:02:54;;;;;;;6.38;3.47;;;;;;;;;;5039519;28;20091;-69
2023/06/20 04:05:19;;;;;;;10.52;3.70;;;;;;;;;;5038184;28;20087;-68
2023/06/20 04:07:45;;;;;;;5.20;3.60;;;;;;;;;;5038316;28;20033;-69
2023/06/20 04:10:12;;;;;;;6.45;4.20;;;;;;;;;;5036556;28;20498;-68
2023/06/20 04:12:41;;;;;;;4.05;3.50;;;;;;;;;;5036861;28;20040;-70
2023/06/20 04:15:08;;;;;;;4.30;3.55;;;;;;;;;;5042759;28;20123;-69
2023/06/20 04:17:33;;;;;;;5.50;4.00;;;;;;;;;;5034788;28;20029;-69
2023/06/20 04:20:04;;;;;;;5.30;3.40;;;;;;;;;;5020908;28;20083;-68
2023/06/20 04:22:29;;;;;;;5.05;3.92;;;;;;;;;;5032209;28;20149;-69
2023/06/20 04:24:55;;;;;;;7.32;3.88;;;;;;;;;;4995604;28;20053;-69
2023/06/20 04:27:20;;;;;;;9.85;3.97;;;;;;;;;;5048523;28;20022;-69
2023/06/20 04:29:46;;;;;;;7.38;3.53;;;;;;;;;;5024241;28;20049;-66
2023/06/20 04:32:11;;;;;;;6.97;4.15;;;;;;;;;;5022630;28;20510;-68
2023/06/20 04:34:37;;;;;;;5.82;3.92;;;;;;;;;;5025524;28;20061;-69
2023/06/20 04:37:02;;;;;;;8.73;3.90;;;;;;;;;;5006224;28;20145;-69
2023/06/20 04:39:31;;;;;;;6.25;4.05;;;;;;;;;;5023904;28;20021;-69
2023/06/20 04:41:56;;;;;;;10.02;3.60;;;;;;;;;;5036849;28;20128;-69
2023/06/20 04:44:22;;;;;;;9.73;3.60;;;;;;;;;;5014869;28;20061;-69
2023/06/20 04:46:47;;;;;;;8.95;4.00;;;;;;;;;;5017348;28;20768;-69
2023/06/20 04:49:13;;;;;;;6.78;3.75;;;;;;;;;;5018487;28;20093;-69
2023/06/20 04:51:40;;;;;;;8.07;3.90;;;;;;;;;;5016912;28;20674;-69
2023/06/20 04:54:07;;;;;;;7.68;4.30;;;;;;;;;;5005971;28;20098;-69
2023/06/20 04:56:40;;;;;;;11.48;4.05;;;;;;;;;;5032450;28;20038;-68
2023/06/20 04:59:09;;;;;;;8.40;3.83;;;;;;;;;;5000898;28;20592;-69
2023/06/20 05:01:35;;;;;;;11.35;4.55;;;;;;;;;;5030353;28;20123;-69
2023/06/20 05:04:03;;;;;;;7.65;3.72;;;;;;;;;;5019616;28;20042;-69
2023/06/20 05:06:29;;;;;;;10.90;4.10;;;;;;;;;;4995633;28;20064;-69
2023/06/20 05:08:54;;;;;;;8.10;4.07;;;;;;;;;;5030954;28;20021;-69
2023/06/20 05:11:20;;;;;;;4.93;3.65;;;;;;;;;;5010596;28;20029;-69
2023/06/20 05:13:45;;;;;;;4.38;3.47;;;;;;;;;;5019108;28;20478;-69
2023/06/20 05:16:10;;;;;;;9.10;4.05;;;;;;;;;;5033924;28;20042;-69
2023/06/20 05:18:36;;;;;;;6.25;3.92;;;;;;;;;;5012668;28;20099;-69
2023/06/20 05:21:01;;;;;;;4.75;3.50;;;;;;;;;;5006702;28;20665;-71
2023/06/20 05:23:27;;;;;;;12.52;5.15;;;;;;;;;;5037094;28;20033;-70
2023/06/20 05:25:53;;;;;;;14.70;3.88;;;;;;;;;;5035550;28;20033;-70
2023/06/20 05:28:19;;;;;;;9.55;4.78;;;;;;;;;;5032837;28;20434;-70
2023/06/20 05:30:44;;;;;;;6.05;3.83;;;;;;;;;;5019043;28;20045;-69
2023/06/20 05:33:10;;;;;;;9.18;3.60;;;;;;;;;;5018988;28;20040;-65
2023/06/20 05:35:35;;;;;;;9.45;4.13;;;;;;;;;;5036812;28;20044;-69
2023/06/20 05:38:01;;;;;;;7.70;3.63;;;;;;;;;;5024720;28;20061;-70
2023/06/20 05:40:26;;;;;;;7.75;3.63;;;;;;;;;;5034380;28;20037;-69
2023/06/20 05:42:51;;;;;;;6.30;4.18;;;;;;;;;;5014963;28;20759;-70
2023/06/20 05:45:17;;;;;;;11.65;4.03;;;;;;;;;;5033306;28;20120;-70
2023/06/20 05:47:45;;;;;;;8.02;4.28;;;;;;;;;;5032510;28;20467;-69
2023/06/20 05:50:11;;;;;;;17.92;4.43;;;;;;;;;;5013386;28;20502;-69
2023/06/20 05:52:37;;;;;;;11.40;3.70;;;;;;;;;;5000823;28;20029;-68
2023/06/20 05:55:03;;;;;;;9.70;4.05;;;;;;;;;;5017477;28;20109;-68
2023/06/20 05:57:29;;;;;;;21.63;4.35;;;;;;;;;;5032730;28;20136;-70
2023/06/20 05:59:54;;;;;;;5.20;4.00;;;;;;;;;;5032333;28;20037;-69
2023/06/20 06:02:22;;;;;;;5.75;3.60;;;;;;;;;;5015719;28;20033;-69
2023/06/20 06:04:49;;;;;;;9.30;3.65;;;;;;;;;;5012037;28;20118;-69
2023/06/20 06:07:14;;;;;;;9.82;4.10;;;;;;;;;;5032034;28;20025;-68
2023/06/20 06:09:40;;;;;;;9.30;4.13;;;;;;;;;;5016843;28;20036;-68
2023/06/20 06:12:06;;;;;;;14.18;3.65;;;;;;;;;;5028156;28;20045;-70
2023/06/20 06:14:32;;;;;;;5.07;3.78;;;;;;;;;;4999563;28;20029;-70
2023/06/20 06:16:57;;;;;;;4.53;3.40;;;;;;;;;;5034074;28;20064;-68
2023/06/20 06:19:22;;;;;;;8.10;3.42;;;;;;;;;;5032838;28;20029;-69
2023/06/20 06:21:48;;;;;;;8.07;3.67;;;;;;;;;;5040214;28;20037;-69
2023/06/20 06:24:14;;;;;;;8.35;3.40;;;;;;;;;;5034476;28;20446;-70
2023/06/20 06:26:39;;;;;;;7.38;4.07;;;;;;;;;;5029572;28;20060;-71
2023/06/20 06:29:04;;;;;;;12.95;5.07;;;;;;;;;;5018039;28;20040;-70
2023/06/20 06:31:33;;;;;;;11.18;3.65;;;;;;;;;;5036093;28;20045;-71
2023/06/20 06:33:59;;;;;;;7.28;4.30;;;;;;;;;;5029636;28;20541;-71
2023/06/20 06:36:25;;;;;;;6.15;4.13;;;;;;;;;;5023579;28;20049;-69
2023/06/20 06:38:51;;;;;;;8.70;3.92;;;;;;;;;;5016417;28;20030;-69
2023/06/20 06:41:18;;;;;;;6.43;4.00;;;;;;;;;;5027033;28;20140;-71
2023/06/20 06:43:44;;;;;;;14.23;3.63;;;;;;;;;;5021971;28;20386;-72
2023/06/20 06:46:09;;;;;;;7.60;3.70;;;;;;;;;;5004912;28;20034;-71
2023/06/20 06:48:34;;;;;;;10.93;3.92;;;;;;;;;;5019563;28;20073;-68
2023/06/20 06:51:01;;;;;;;6.75;4.50;;;;;;;;;;5025611;28;20461;-71
2023/06/20 06:53:26;;;;;;;11.45;3.78;;;;;;;;;;5038021;28;20040;-72
2023/06/20 06:55:52;;;;;;;6.63;3.63;;;;;;;;;;5034455;28;20041;-74
2023/06/20 06:58:17;;;;;;;16.45;4.25;;;;;;;;;;5022947;28;20025;-74
2023/06/20 07:00:42;;;;;;;14.52;4.03;;;;;;;;;;5016117;28;20046;-73
2023/06/20 07:03:08;;;;;;;7.20;3.90;;;;;;;;;;5027033;28;20029;-72
2023/06/20 07:05:34;;;;;;;9.90;4.07;;;;;;;;;;5039304;28;20091;-74
2023/06/20 07:07:59;;;;;;;11.25;3.95;;;;;;;;;;5031861;28;20021;-74
2023/06/20 07:10:25;;;;;;;7.75;3.90;;;;;;;;;;5036265;28;20120;-72
2023/06/20 07:12:50;;;;;;;10.52;3.92;;;;;;;;;;5020491;28;20477;-73
2023/06/20 07:15:16;;;;;;;8.20;3.90;;;;;;;;;;5002068;28;20088;-76
2023/06/20 07:17:41;;;;;;;9.75;4.20;;;;;;;;;;5032936;28;20017;-74
2023/06/20 07:20:09;;;;;;;10.80;4.00;;;;;;;;;;5037348;28;20522;-73
2023/06/20 07:22:34;;;;;;;10.38;4.30;;;;;;;;;;5029689;28;20052;-73
2023/06/20 07:25:00;;;;;;;5.80;3.83;;;;;;;;;;5033805;28;20029;-73
2023/06/20 07:27:25;;;;;;;6.90;4.00;;;;;;;;;;5035207;28;20516;-74
2023/06/20 07:29:50;;;;;;;7.88;4.03;;;;;;;;;;5030416;28;20029;-71
2023/06/20 07:32:16;;;;;;;6.32;3.78;;;;;;;;;;5023977;28;20132;-73
2023/06/20 07:34:42;;;;;;;9.93;4.22;;;;;;;;;;5034188;28;20029;-71
2023/06/20 07:37:07;;;;;;;9.07;4.00;;;;;;;;;;5018792;28;20033;-72
2023/06/20 07:39:32;;;;;;;9.73;3.50;;;;;;;;;;5024233;28;20026;-72
2023/06/20 07:41:58;;;;;;;7.63;4.20;;;;;;;;;;5028613;28;20033;-72
2023/06/20 07:44:23;;;;;;;6.40;3.65;;;;;;;;;;5021084;28;20482;-74
2023/06/20 07:46:49;;;;;;;10.13;3.53;;;;;;;;;;5026481;28;20410;-71
2023/06/20 07:49:14;;;;;;;9.32;3.85;;;;;;;;;;5028319;28;20502;-72
2023/06/20 07:51:40;;;;;;;11.90;4.13;;;;;;;;;;5017342;28;20046;-72
2023/06/20 07:54:06;;;;;;;7.43;4.10;;;;;;;;;;5034638;28;20021;-71
2023/06/20 07:56:32;;;;;;;10.05;4.25;;;;;;;;;;5034155;28;20045;-71
2023/06/20 07:58:57;;;;;;;9.25;3.92;;;;;;;;;;5035529;28;20041;-72
2023/06/20 08:01:23;;;;;;;9.35;3.55;;;;;;;;;;5012193;28;20038;-73
2023/06/20 08:03:48;;;;;;;7.00;3.45;;;;;;;;;;5033593;28;20018;-74
2023/06/20 08:06:14;;;;;;;19.25;4.72;;;;;;;;;;5019775;28;20391;-71
2023/06/20 08:08:39;;;;;;;14.18;4.13;;;;;;;;;;5019260;28;20100;-73
2023/06/20 08:11:05;;;;;;;12.52;4.28;;;;;;;;;;5021504;28;20053;-72
2023/06/20 08:13:31;;;;;;;10.00;4.15;;;;;;;;;;5034557;28;20033;-72
2023/06/20 08:15:57;;;;;;;8.07;3.72;;;;;;;;;;5020175;28;20072;-71
2023/06/20 08:18:22;;;;;;;7.63;3.72;;;;;;;;;;5023843;28;20021;-72
2023/06/20 08:20:48;;;;;;;8.52;4.15;;;;;;;;;;5037677;28;20037;-72
2023/06/20 08:23:25;;;;;;;12.38;4.43;;;;;;;;;;5026603;28;20222;-71
2023/06/20 08:25:52;;;;;;;10.10;4.50;;;;;;;;;;5030754;28;20113;-70
2023/06/20 08:28:17;;;;;;;5.80;4.10;;;;;;;;;;5037590;28;20025;-72
2023/06/20 08:30:42;;;;;;;15.73;4.38;;;;;;;;;;5037344;28;20052;-72
2023/06/20 08:33:08;;;;;;;10.55;3.40;;;;;;;;;;5038789;28;20470;-72
2023/06/20 08:35:33;;;;;;;13.88;3.92;;;;;;;;;;5028476;28;20038;-73
2023/06/20 08:37:58;;;;;;;9.02;3.88;;;;;;;;;;4997540;28;20080;-72
2023/06/20 08:40:24;;;;;;;10.30;4.22;;;;;;;;;;5019846;28;20052;-71
2023/06/20 08:42:49;;;;;;;8.50;3.70;;;;;;;;;;5027132;28;20065;-71
2023/06/20 08:45:15;;;;;;;8.43;4.22;;;;;;;;;;5031075;28;20041;-71
2023/06/20 08:47:41;;;;;;;9.93;3.78;;;;;;;;;;5022493;28;20532;-73
2023/06/20 08:50:07;;;;;;;12.18;4.40;;;;;;;;;;5036144;28;20049;-72
2023/06/20 08:52:44;;;;;;;15.48;4.35;;;;;;;;;;5017712;28;20040;-72
2023/06/20 08:55:12;;;;;;;13.18;3.92;;;;;;;;;;5026957;28;20125;-72
2023/06/20 08:57:37;;;;;;;6.15;3.78;;;;;;;;;;5034299;28;20482;-71
2023/06/20 09:00:05;;;;;;;6.10;3.70;;;;;;;;;;5036182;28;20029;-72
2023/06/20 09:02:31;;;;;;;8.40;3.80;;;;;;;;;;5036361;28;20026;-71
2023/06/20 09:05:02;;;;;;;9.52;3.50;;;;;;;;;;5016825;28;20117;-72
2023/06/20 09:07:37;;;;;;;8.48;4.03;;;;;;;;;;5037359;28;20025;-72
2023/06/20 09:10:04;;;;;;;10.90;3.60;;;;;;;;;;5032723;28;20040;-71
2023/06/20 09:12:43;;;;;;;10.38;3.85;;;;;;;;;;5022690;28;20025;-71
2023/06/20 09:15:12;;;;;;;7.45;4.18;;;;;;;;;;5036492;28;20041;-70
2023/06/20 09:17:37;;;;;;;14.60;4.63;;;;;;;;;;5022820;28;20127;-71
2023/06/20 09:20:04;;;;;;;21.52;4.80;;;;;;;;;;5025933;28;20052;-70
2023/06/20 09:22:30;;;;;;;19.17;4.93;;;;;;;;;;5037051;28;20122;-72
2023/06/20 09:24:55;;;;;;;23.25;4.53;;;;;;;;;;5015295;28;20103;-69
2023/06/20 09:27:21;;;;;;;19.42;4.18;;;;;;;;;;5026318;28;20029;-71
2023/06/20 09:30:00;;;;;;;16.15;4.32;;;;;;;;;;5025090;28;20029;-70
2023/06/20 09:32:25;;;;;;;10.80;4.28;;;;;;;;;;5041266;28;20029;-71
2023/06/20 09:34:51;;;;;;;15.18;4.20;;;;;;;;;;5031956;28;20032;-69
2023/06/20 09:37:17;;;;;;;37.85;5.22;;;;;;;;;;5034444;28;20029;-71
2023/06/20 09:39:43;;;;;;;17.38;4.80;;;;;;;;;;5029617;28;20036;-73
2023/06/20 09:42:14;;;;;;;19.17;4.07;;;;;;;;;;5025206;28;20041;-71
2023/06/20 09:44:40;;;;;;;15.00;4.75;;;;;;;;;;5035863;28;20037;-72
2023/06/20 09:47:07;;;;;;;16.45;4.20;;;;;;;;;;5027323;28;20121;-72
2023/06/20 09:49:35;;;;;;;14.45;4.03;;;;;;;;;;5017510;28;20387;-72
2023/06/20 09:52:07;;;;;;;19.73;4.43;;;;;;;;;;5035299;28;20087;-73
2023/06/20 09:54:44;;;;;;;15.98;4.30;;;;;;;;;;5036024;28;20037;-69
2023/06/20 09:57:15;;;;;;;13.65;4.85;;;;;;;;;;5024559;28;20127;-69
2023/06/20 09:59:41;;;;;;;;;;;;;;;;;;5022147;28;20080;-69
2023/06/20 10:02:08;;;;;;;18.20;4.32;;;;;;;;;;5035695;28;19921;-70
2023/06/20 10:04:42;;;;;;;14.85;4.28;;;;;;;;;;5013189;28;20108;-70
2023/06/20 10:07:11;;;;;;;13.48;4.40;;;;;;;;;;5035941;28;20038;-72
2023/06/20 10:09:37;;;;;;;11.45;4.78;;;;;;;;;;5018883;28;20022;-71
2023/06/20 10:12:04;;;;;;;13.20;4.20;;;;;;;;;;5036238;28;20042;-71
2023/06/20 10:14:30;;;;;;;11.35;4.68;;;;;;;;;;5039713;28;20033;-72
2023/06/20 10:17:04;;;;;;;12.60;4.10;;;;;;;;;;5037687;28;20043;-70
2023/06/20 10:19:29;;;;;;;15.00;4.78;;;;;;;;;;5032181;28;20056;-71
2023/06/20 10:22:00;;;;;;;19.73;4.35;;;;;;;;;;5028498;28;20045;-70
2023/06/20 10:24:27;;;;;;;20.98;4.60;;;;;;;;;;5033508;28;20028;-70
2023/06/20 10:26:54;;;;;;;23.15;5.10;;;;;;;;;;5033476;28;20103;-72
2023/06/20 10:29:21;;;;;;;16.20;4.75;;;;;;;;;;5039803;28;20036;-72
2023/06/20 10:32:04;;;;;;;14.32;4.70;;;;;;;;;;5034476;28;20042;-73
2023/06/20 10:34:34;;;;;;;11.65;4.88;;;;;;;;;;5031405;28;20029;-74
2023/06/20 10:37:27;;;;;;;18.25;4.60;;;;;;;;;;5034564;28;20116;-73
2023/06/20 10:39:57;;;;;;;13.52;5.00;;;;;;;;;;5047381;28;20071;-74
2023/06/20 10:42:37;;;;;;;22.30;5.25;;;;;;;;;;5035354;28;20061;-75
2023/06/20 10:45:25;;;;;;;13.20;5.13;;;;;;;;;;5032890;28;20026;-78
2023/06/20 10:47:52;;;;;;;10.10;4.78;;;;;;;;;;5037309;28;20089;-74
2023/06/20 10:50:18;;;;;;;12.43;4.38;;;;;;;;;;5021321;28;20113;-76
2023/06/20 10:52:44;;;;;;;13.05;4.60;;;;;;;;;;5039361;28;20033;-76
2023/06/20 10:55:21;;;;;;;14.07;4.60;;;;;;;;;;5032716;28;20037;-75
2023/06/20 10:57:48;;;;;;;10.35;4.38;;;;;;;;;;5047768;28;20033;-71
2023/06/20 11:00:17;;;;;;;15.20;4.38;;;;;;;;;;5036347;28;20045;-73
2023/06/20 11:02:44;;;;;;;13.00;4.75;;;;;;;;;;5023498;28;20037;-75
2023/06/20 11:05:10;;;;;;;13.23;4.43;;;;;;;;;;5026935;28;20589;-74
2023/06/20 11:07:53;;;;;;;16.23;5.22;;;;;;;;;;5019570;28;21109;-75
2023/06/20 11:10:38;;;;;;;16.73;4.75;;;;;;;;;;5024907;28;20042;-73
2023/06/20 11:13:05;;;;;;;13.65;4.90;;;;;;;;;;5035915;28;20363;-74
2023/06/20 11:15:35;;;;;;;14.52;4.28;;;;;;;;;;5034717;28;20067;-74
2023/06/20 11:18:07;;;;;;;20.88;5.20;;;;;;;;;;5023536;28;20033;-71
2023/06/20 11:20:39;;;;;;;12.10;4.72;;;;;;;;;;5029071;28;20040;-74
2023/06/20 11:23:08;;;;;;;27.95;5.53;;;;;;;;;;5033314;28;20041;-72
2023/06/20 11:25:35;;;;;;;20.48;4.82;;;;;;;;;;5032700;28;20072;-74
2023/06/20 11:28:06;;;;;;;24.80;4.88;;;;;;;;;;5039521;28;20025;-74
2023/06/20 11:30:33;;;;;;;27.23;5.38;;;;;;;;;;5017708;28;20034;-74
2023/06/20 11:33:12;;;;;;;14.55;5.10;;;;;;;;;;5035242;28;20052;-72
2023/06/20 11:35:39;;;;;;;17.58;5.15;;;;;;;;;;5020994;28;20033;-74
2023/06/20 11:38:04;;;;;;;15.38;4.93;;;;;;;;;;5034683;28;20030;-70
2023/06/20 11:40:30;;;;;;;16.08;5.25;;;;;;;;;;5032110;28;20552;-71
2023/06/20 11:42:55;;;;;;;14.95;4.53;;;;;;;;;;5035716;28;20056;-70
2023/06/20 11:45:25;;;;;;;14.20;4.60;;;;;;;;;;5016911;28;20136;-72
2023/06/20 11:48:09;;;;;;;11.77;4.75;;;;;;;;;;5033747;28;20382;-72
2023/06/20 11:50:35;;;;;;;15.13;4.25;;;;;;;;;;5019565;28;20375;-73
2023/06/20 11:53:01;;;;;;;21.73;5.10;;;;;;;;;;5040982;28;20051;-72
2023/06/20 11:55:48;;;;;;;19.55;4.75;;;;;;;;;;5034726;28;20615;-72
2023/06/20 11:58:14;;;;;;;23.15;4.80;;;;;;;;;;5001728;28;20125;-73
2023/06/20 12:00:39;;;;;;;13.88;4.32;;;;;;;;;;5037039;28;20057;-72
2023/06/20 12:03:10;;;;;;;13.05;4.72;;;;;;;;;;5019955;28;20167;-71
2023/06/20 12:05:37;;;;;;;16.03;4.97;;;;;;;;;;5038956;28;20034;-70
2023/06/20 12:08:03;;;;;;;19.00;6.05;;;;;;;;;;5039044;28;20593;-71
2023/06/20 12:10:29;;;;;;;17.88;4.63;;;;;;;;;;5037695;28;20037;-72
2023/06/20 12:12:54;;;;;;;12.77;4.32;;;;;;;;;;5024685;28;20038;-73
2023/06/20 12:15:20;;;;;;;14.63;5.03;;;;;;;;;;5041812;28;20110;-72
2023/06/20 12:17:45;;;;;;;25.90;5.60;;;;;;;;;;5040306;28;20422;-72
2023/06/20 12:20:11;;;;;;;24.27;5.25;;;;;;;;;;5038663;28;20056;-70
2023/06/20 12:22:37;;;;;;;19.08;5.40;;;;;;;;;;5021669;28;20041;-70
2023/06/20 12:25:04;;;;;;;13.25;4.57;;;;;;;;;;5008464;28;20060;-73
2023/06/20 12:27:29;;;;;;;25.52;5.32;;;;;;;;;;5039000;28;20017;-73
2023/06/20 12:29:54;;;;;;;15.57;4.95;;;;;;;;;;5035884;28;20033;-72
2023/06/20 12:32:20;;;;;;;21.27;4.75;;;;;;;;;;5036448;28;20030;-74
2023/06/20 12:34:45;;;;;;;20.77;5.20;;;;;;;;;;5031754;28;20471;-61
2023/06/20 12:37:11;;;;;;;15.30;5.32;;;;;;;;;;5037016;28;20112;-74
2023/06/20 12:39:37;;;;;;;19.83;5.75;;;;;;;;;;5021968;28;20033;-74
2023/06/20 12:42:02;;;;;;;12.52;5.03;;;;;;;;;;5021868;28;20486;-74
2023/06/20 12:44:28;;;;;;;17.52;4.93;;;;;;;;;;5029455;28;20103;-75
2023/06/20 12:46:53;;;;;;;11.27;5.32;;;;;;;;;;5035656;28;20045;-74
2023/06/20 12:49:20;;;;;;;16.23;5.32;;;;;;;;;;5034916;28;20506;-75
2023/06/20 12:51:45;;;;;;;15.15;4.97;;;;;;;;;;5028708;28;20049;-74
2023/06/20 12:54:11;;;;;;;20.10;5.22;;;;;;;;;;5037225;28;20078;-73
2023/06/20 12:56:37;;;;;;;12.07;4.68;;;;;;;;;;5028107;28;20046;-74
2023/06/20 12:59:04;;;;;;;10.10;4.40;;;;;;;;;;5037421;28;20072;-75
2023/06/20 13:01:30;;;;;;;20.75;5.47;;;;;;;;;;5034599;28;20046;-75
2023/06/20 13:03:56;;;;;;;15.65;5.05;;;;;;;;;;5041168;28;20057;-75
2023/06/20 13:06:21;;;;;;;16.52;5.50;;;;;;;;;;5022821;28;20091;-76
2023/06/20 13:08:47;;;;;;;18.92;5.50;;;;;;;;;;5032194;28;20029;-74
2023/06/20 13:11:14;;;;;;;14.02;5.03;;;;;;;;;;5042153;28;20034;-75
2023/06/20 13:13:40;;;;;;;19.35;5.75;;;;;;;;;;5024244;28;20021;-75
2023/06/20 13:16:06;;;;;;;11.73;4.28;;;;;;;;;;5020747;28;20147;-75
2023/06/20 13:18:33;;;;;;;20.73;5.18;;;;;;;;;;5038802;28;20919;-76
2023/06/20 13:20:58;;;;;;;8.85;4.30;;;;;;;;;;5035254;28;20049;-78
2023/06/20 13:23:25;;;;;;;12.20;4.90;;;;;;;;;;5037186;28;20041;-77
2023/06/20 13:25:50;;;;;;;23.80;5.68;;;;;;;;;;5035940;28;20132;-73
2023/06/20 13:28:16;;;;;;;28.20;5.68;;;;;;;;;;5036889;28;20102;-75
2023/06/20 13:30:42;;;;;;;21.27;4.85;;;;;;;;;;5035979;28;20064;-76
2023/06/20 13:33:08;;;;;;;15.02;5.20;;;;;;;;;;5021241;28;20033;-77
2023/06/20 13:35:34;;;;;;;10.02;4.95;;;;;;;;;;5003041;28;20521;-78
2023/06/20 13:38:00;;;;;;;17.83;5.05;;;;;;;;;;5037904;28;20061;-76
2023/06/20 13:40:30;;;;;;;14.95;5.07;;;;;;;;;;5007258;28;20099;-76
2023/06/20 13:42:56;;;;;;;15.50;5.15;;;;;;;;;;5025857;28;20099;-76
2023/06/20 13:45:22;;;;;;;19.55;5.53;;;;;;;;;;5024196;28;20049;-76
2023/06/20 13:47:48;;;;;;;14.52;5.35;;;;;;;;;;5027056;28;20030;-75
2023/06/20 13:50:14;;;;;;;21.40;5.18;;;;;;;;;;5036494;28;20402;-75
2023/06/20 13:52:40;;;;;;;14.50;5.40;;;;;;;;;;5036021;28;20112;-76
2023/06/20 13:55:06;;;;;;;14.38;5.05;;;;;;;;;;5021910;28;20061;-76
2023/06/20 13:57:32;;;;;;;16.55;5.25;;;;;;;;;;5046280;28;20064;-75
2023/06/20 14:00:00;;;;;;;14.32;5.47;;;;;;;;;;5021254;28;20035;-77
2023/06/20 14:02:26;;;;;;;11.02;4.38;;;;;;;;;;5036611;28;20025;-74
2023/06/20 14:04:55;;;;;;;11.20;4.80;;;;;;;;;;5036793;28;20107;-74
2023/06/20 14:07:21;;;;;;;18.40;4.97;;;;;;;;;;5041702;28;20033;-78
2023/06/20 14:09:46;;;;;;;17.60;5.47;;;;;;;;;;5032767;28;20075;-72
2023/06/20 14:12:12;;;;;;;21.77;5.80;;;;;;;;;;5034539;28;20033;-76
2023/06/20 14:14:37;;;;;;;16.85;5.18;;;;;;;;;;5030289;28;20097;-77
2023/06/20 14:17:03;;;;;;;13.50;5.53;;;;;;;;;;5034729;28;20056;-76
2023/06/20 14:19:32;;;;;;;24.15;5.55;;;;;;;;;;5030098;28;20025;-76
2023/06/20 14:21:58;;;;;;;13.82;4.93;;;;;;;;;;5012306;28;20038;-74
2023/06/20 14:24:24;;;;;;;20.58;5.68;;;;;;;;;;5020275;28;20030;-71
2023/06/20 14:26:49;;;;;;;17.88;5.40;;;;;;;;;;5027927;28;20406;-75
2023/06/20 14:29:15;;;;;;;13.20;5.35;;;;;;;;;;5032710;28;20049;-74
2023/06/20 14:31:41;;;;;;;16.23;5.95;;;;;;;;;;5006674;28;20041;-71
2023/06/20 14:34:06;;;;;;;18.30;5.68;;;;;;;;;;4997641;28;20040;-75
2023/06/20 14:36:34;;;;;;;14.25;5.95;;;;;;;;;;5035155;28;20091;-74
2023/06/20 14:39:00;;;;;;;13.30;5.50;;;;;;;;;;5023159;28;20120;-73